Time;durP1;ratioP1;P1;durP2;ratioP2;P2;SDS_P1;SDS_P2;PMS_P1;PMS_P2;Temp;Humidity;BMP_temperature;BMP_pressure;BME280_temperature;BME280_humidity;BME280_pressure;Samples;Min_cycle;Max_cycle;Signal;HPM_P1;HPM_P2
2023/06/20 00:01:15;;;;;;;17.25;13.48;;;;;;;;;;5066509;28;20020;-37
2023/06/20 00:03:41;;;;;;;17.35;13.10;;;;;;;;;;5086264;28;20047;-36
2023/06/20 00:06:06;;;;;;;17.13;14.02;;;;;;;;;;5066254;28;20449;-37
2023/06/20 00:08:31;;;;;;;18.73;14.05;;;;;;;;;;5069450;28;20047;-37
2023/06/20 00:10:59;;;;;;;22.05;14.40;;;;;;;;;;5082001;28;20062;-36
2023/06/20 00:13:24;;;;;;;19.05;13.32;;;;;;;;;;5085195;28;20032;-37
2023/06/20 00:15:50;;;;;;;15.98;13.32;;;;;;;;;;5077872;28;20368;-37
2023/06/20 00:18:17;;;;;;;19.13;13.38;;;;;;;;;;5062365;28;20034;-36
2023/06/20 00:20:46;;;;;;;19.90;13.98;;;;;;;;;;5075444;28;20032;-37
2023/06/20 00:23:11;;;;;;;17.85;14.07;;;;;;;;;;5074217;28;20510;-37
2023/06/20 00:25:39;;;;;;;17.70;12.85;;;;;;;;;;5071171;28;20040;-37
2023/06/20 00:28:04;;;;;;;17.45;14.45;;;;;;;;;;5080577;28;20020;-36
2023/06/20 00:30:30;;;;;;;24.63;16.30;;;;;;;;;;5087289;28;20028;-36
2023/06/20 00:32:58;;;;;;;21.80;14.45;;;;;;;;;;5058497;28;20032;-36
2023/06/20 00:35:26;;;;;;;18.48;14.05;;;;;;;;;;5082611;28;20029;-37
2023/06/20 00:37:52;;;;;;;19.63;13.40;;;;;;;;;;5080617;28;20036;-37
2023/06/20 00:40:19;;;;;;;20.95;14.48;;;;;;;;;;5080958;28;20050;-37
2023/06/20 00:42:45;;;;;;;21.25;15.43;;;;;;;;;;5080495;28;20039;-37
2023/06/20 00:45:32;;;;;;;18.30;14.15;;;;;;;;;;5064151;28;20651;-35
2023/06/20 00:47:59;;;;;;;19.50;13.60;;;;;;;;;;5079569;28;20012;-34
2023/06/20 00:50:27;;;;;;;20.33;13.45;;;;;;;;;;5078029;28;20040;-35
2023/06/20 00:52:56;;;;;;;18.25;14.77;;;;;;;;;;5081221;28;20020;-34
2023/06/20 00:55:21;;;;;;;19.55;13.95;;;;;;;;;;5079781;28;20078;-37
2023/06/20 00:57:48;;;;;;;18.90;14.68;;;;;;;;;;5079611;28;22347;-36
2023/06/20 01:00:13;;;;;;;17.70;13.85;;;;;;;;;;5081478;28;20035;-36
2023/06/20 01:02:46;;;;;;;19.67;14.32;;;;;;;;;;5082157;28;20024;-36
2023/06/20 01:05:13;;;;;;;17.98;14.52;;;;;;;;;;5079885;28;20023;-37
2023/06/20 01:07:58;;;;;;;21.50;13.48;;;;;;;;;;5080889;28;20020;-37
2023/06/20 01:10:38;;;;;;;19.35;14.63;;;;;;;;;;5083814;28;20028;-37
2023/06/20 01:13:08;;;;;;;19.50;13.50;;;;;;;;;;5080738;28;20474;-36
2023/06/20 01:16:00;;;;;;;20.30;13.70;;;;;;;;;;5082437;28;20028;-37
2023/06/20 01:18:43;;;;;;;20.08;14.13;;;;;;;;;;5045676;28;20028;-36
2023/06/20 01:21:11;;;;;;;19.92;14.25;;;;;;;;;;5082326;28;20115;-37
2023/06/20 01:23:43;;;;;;;18.60;14.35;;;;;;;;;;5063798;28;20033;-36
2023/06/20 01:26:17;;;;;;;24.20;14.18;;;;;;;;;;5082513;28;20060;-37
2023/06/20 01:28:58;;;;;;;17.60;14.20;;;;;;;;;;5079479;28;20024;-37
2023/06/20 01:31:24;;;;;;;;;;;;;;;;;;5081564;28;20591;-36
2023/06/20 01:33:54;;;;;;;18.57;13.97;;;;;;;;;;5080381;28;19912;-36
2023/06/20 01:36:20;;;;;;;20.02;15.13;;;;;;;;;;5077876;28;20020;-37
2023/06/20 01:38:47;;;;;;;19.38;14.57;;;;;;;;;;5088034;28;20435;-37
2023/06/20 01:41:22;;;;;;;21.45;15.25;;;;;;;;;;5081675;28;20031;-36
2023/06/20 01:43:48;;;;;;;18.55;14.60;;;;;;;;;;5085754;28;20020;-36
2023/06/20 01:46:14;;;;;;;18.27;13.85;;;;;;;;;;5085935;28;20012;-36
2023/06/20 01:48:41;;;;;;;19.77;14.43;;;;;;;;;;5084966;28;20016;-37
2023/06/20 01:51:06;;;;;;;18.20;13.95;;;;;;;;;;5071309;28;20028;-37
2023/06/20 01:53:35;;;;;;;23.15;14.13;;;;;;;;;;5088147;28;20023;-36
2023/06/20 02:08:15;;;;;;;18.75;14.80;;;;;;;;;;5087616;28;20114;-36
2023/06/20 02:10:41;;;;;;;20.17;14.45;;;;;;;;;;5083151;28;20024;-36
2023/06/20 02:13:06;;;;;;;20.50;15.30;;;;;;;;;;5086447;28;20066;-37
2023/06/20 02:15:34;;;;;;;20.02;15.32;;;;;;;;;;5086642;28;20067;-37
2023/06/20 02:18:02;;;;;;;20.33;15.45;;;;;;;;;;5081267;28;20059;-37
2023/06/20 02:20:27;;;;;;;19.23;15.40;;;;;;;;;;5081959;28;20032;-37
2023/06/20 02:22:55;;;;;;;20.77;15.45;;;;;;;;;;5069167;28;20038;-37
2023/06/20 02:25:22;;;;;;;21.48;16.55;;;;;;;;;;5088863;28;20534;-37
2023/06/20 02:27:48;;;;;;;21.17;14.48;;;;;;;;;;5086445;28;20405;-36
2023/06/20 02:30:14;;;;;;;19.02;15.10;;;;;;;;;;5082912;28;20020;-37
2023/06/20 02:32:41;;;;;;;20.30;15.43;;;;;;;;;;5085043;28;20028;-36
2023/06/20 02:35:10;;;;;;;20.17;14.65;;;;;;;;;;5067566;28;20028;-37
2023/06/20 02:37:36;;;;;;;22.55;15.25;;;;;;;;;;5078229;28;20052;-37
2023/06/20 02:40:04;;;;;;;18.25;14.55;;;;;;;;;;5084871;28;20016;-37
2023/06/20 02:42:33;;;;;;;23.90;15.38;;;;;;;;;;5084789;28;20436;-36
2023/06/20 02:44:59;;;;;;;18.58;15.15;;;;;;;;;;5083285;28;20054;-37
2023/06/20 02:47:33;;;;;;;21.30;15.65;;;;;;;;;;5078953;28;20032;-36
2023/06/20 02:49:58;;;;;;;22.13;15.25;;;;;;;;;;5083131;28;20016;-37
2023/06/20 02:52:36;;;;;;;26.00;15.83;;;;;;;;;;5089540;28;20103;-36
2023/06/20 02:55:14;;;;;;;20.48;14.35;;;;;;;;;;5078737;28;20270;-37
2023/06/20 02:57:43;;;;;;;18.70;15.25;;;;;;;;;;5086785;28;20030;-37
2023/06/20 03:00:10;;;;;;;17.08;10.07;;;;;;;;;;5083210;28;20036;-37
2023/06/20 03:02:41;;;;;;;23.73;15.48;;;;;;;;;;5086467;28;20494;-36
2023/06/20 03:05:09;;;;;;;20.08;14.35;;;;;;;;;;5089991;28;20020;-36
2023/06/20 03:07:35;;;;;;;23.83;16.55;;;;;;;;;;5069915;28;20024;-36
2023/06/20 03:10:04;;;;;;;17.35;13.98;;;;;;;;;;5087352;28;20027;-37
2023/06/20 03:12:32;;;;;;;21.15;15.05;;;;;;;;;;5082703;28;20028;-36
2023/06/20 03:14:58;;;;;;;22.42;15.30;;;;;;;;;;5081989;28;20070;-36
2023/06/20 03:17:23;;;;;;;19.83;15.25;;;;;;;;;;5088799;28;20020;-36
2023/06/20 03:19:49;;;;;;;21.25;15.77;;;;;;;;;;5070985;28;20032;-36
2023/06/20 03:22:14;;;;;;;42.03;26.75;;;;;;;;;;5070279;28;20533;-35
2023/06/20 03:24:40;;;;;;;23.58;17.98;;;;;;;;;;5065692;28;20077;-35
2023/06/20 03:27:05;;;;;;;21.70;17.55;;;;;;;;;;5068492;28;20032;-34
2023/06/20 03:29:33;;;;;;;19.42;14.43;;;;;;;;;;5072283;28;20025;-34
2023/06/20 03:31:58;;;;;;;22.90;14.55;;;;;;;;;;5088105;28;20016;-35
2023/06/20 03:34:27;;;;;;;26.30;15.73;;;;;;;;;;5089940;28;20032;-34
2023/06/20 03:36:52;;;;;;;22.45;15.73;;;;;;;;;;5087368;28;20055;-35
2023/06/20 03:39:20;;;;;;;20.95;15.00;;;;;;;;;;5070088;28;20051;-34
2023/06/20 03:41:45;;;;;;;19.85;15.18;;;;;;;;;;5082623;28;20028;-34
2023/06/20 03:44:10;;;;;;;20.42;14.38;;;;;;;;;;5081684;28;20023;-34
2023/06/20 03:46:36;;;;;;;22.42;15.93;;;;;;;;;;5070322;28;20020;-34
2023/06/20 03:49:01;;;;;;;22.70;15.15;;;;;;;;;;5068718;28;20024;-34
2023/06/20 03:51:29;;;;;;;13.38;9.75;;;;;;;;;;5066189;28;20109;-37
2023/06/20 03:53:57;;;;;;;29.75;20.73;;;;;;;;;;5091513;28;20016;-37
2023/06/20 03:56:25;;;;;;;20.92;17.02;;;;;;;;;;5083512;28;20032;-37
2023/06/20 03:58:55;;;;;;;24.55;18.25;;;;;;;;;;5068510;28;20039;-37
2023/06/20 04:01:24;;;;;;;22.95;15.57;;;;;;;;;;5080380;28;20025;-37
2023/06/20 04:03:50;;;;;;;23.13;15.77;;;;;;;;;;5083263;28;20060;-37
2023/06/20 04:06:15;;;;;;;20.60;15.50;;;;;;;;;;5083147;28;20020;-37
2023/06/20 04:08:42;;;;;;;24.33;15.80;;;;;;;;;;5068456;28;20162;-37
2023/06/20 04:11:07;;;;;;;23.35;16.45;;;;;;;;;;5082502;28;20021;-37
2023/06/20 04:13:32;;;;;;;38.53;17.23;;;;;;;;;;5085385;28;20031;-37
2023/06/20 04:16:01;;;;;;;31.45;17.08;;;;;;;;;;5085310;28;20020;-37
2023/06/20 04:18:26;;;;;;;21.02;15.40;;;;;;;;;;5069567;28;20055;-37
2023/06/20 04:20:52;;;;;;;23.73;17.55;;;;;;;;;;5066311;28;20052;-37
2023/06/20 04:23:17;;;;;;;22.50;16.20;;;;;;;;;;5083775;28;20024;-37
2023/06/20 04:25:43;;;;;;;38.28;23.27;;;;;;;;;;5083322;28;20020;-37
2023/06/20 04:28:10;;;;;;;30.00;19.48;;;;;;;;;;5083489;28;20020;-37
2023/06/20 04:30:36;;;;;;;22.27;15.25;;;;;;;;;;5085015;28;20075;-37
2023/06/20 04:33:01;;;;;;;23.05;15.25;;;;;;;;;;5078910;28;20471;-37
2023/06/20 04:35:27;;;;;;;22.67;15.55;;;;;;;;;;5079934;28;20032;-37
2023/06/20 04:37:52;;;;;;;22.23;14.73;;;;;;;;;;5076614;28;20035;-37
2023/06/20 04:40:21;;;;;;;23.52;16.58;;;;;;;;;;5061505;28;20037;-37
2023/06/20 04:42:46;;;;;;;21.73;15.38;;;;;;;;;;5083890;28;20024;-37
2023/06/20 04:45:14;;;;;;;23.73;17.63;;;;;;;;;;5079179;28;20390;-37
2023/06/20 04:47:41;;;;;;;22.05;16.65;;;;;;;;;;5077118;28;20021;-37
2023/06/20 04:50:10;;;;;;;24.65;16.23;;;;;;;;;;5061007;28;20074;-37
2023/06/20 04:52:36;;;;;;;22.73;17.27;;;;;;;;;;5083149;28;20028;-37
2023/06/20 04:55:04;;;;;;;21.70;15.75;;;;;;;;;;5087138;28;20033;-37
2023/06/20 04:57:30;;;;;;;23.48;16.95;;;;;;;;;;5082777;28;20093;-37
2023/06/20 04:59:55;;;;;;;21.90;16.45;;;;;;;;;;5086800;28;20095;-37
2023/06/20 05:02:23;;;;;;;23.80;16.92;;;;;;;;;;5085656;28;20028;-37
2023/06/20 05:04:48;;;;;;;24.15;16.50;;;;;;;;;;5085618;28;20024;-37
2023/06/20 05:07:16;;;;;;;17.95;12.60;;;;;;;;;;5082804;28;20040;-37
2023/06/20 05:09:44;;;;;;;22.63;17.08;;;;;;;;;;5084049;28;20490;-37
2023/06/20 05:12:09;;;;;;;20.95;15.95;;;;;;;;;;5083532;28;20028;-37
2023/06/20 05:14:35;;;;;;;24.30;16.27;;;;;;;;;;5074004;28;20043;-37
2023/06/20 05:17:00;;;;;;;23.77;15.68;;;;;;;;;;5082860;28;20158;-37
2023/06/20 05:19:26;;;;;;;28.23;18.13;;;;;;;;;;5072531;28;20020;-37
2023/06/20 05:21:52;;;;;;;22.70;16.42;;;;;;;;;;5090713;28;20528;-37
2023/06/20 05:24:17;;;;;;;24.33;16.77;;;;;;;;;;5087627;28;20466;-37
2023/06/20 05:26:43;;;;;;;22.70;16.00;;;;;;;;;;5087503;28;20024;-37
2023/06/20 05:29:08;;;;;;;20.55;16.77;;;;;;;;;;5071686;28;20451;-37
2023/06/20 05:31:38;;;;;;;22.83;16.02;;;;;;;;;;5089914;28;20038;-37
2023/06/20 05:34:06;;;;;;;21.48;17.10;;;;;;;;;;5087231;28;20020;-37
2023/06/20 05:36:34;;;;;;;22.83;16.70;;;;;;;;;;5088090;28;20024;-37
2023/06/20 05:38:59;;;;;;;26.20;17.05;;;;;;;;;;5087064;28;20024;-37
2023/06/20 05:41:25;;;;;;;21.95;17.33;;;;;;;;;;5070437;28;20093;-37
2023/06/20 05:43:51;;;;;;;22.88;16.75;;;;;;;;;;5090039;28;20031;-37
2023/06/20 05:46:16;;;;;;;21.23;16.65;;;;;;;;;;5085910;28;20012;-37
2023/06/20 05:48:43;;;;;;;22.52;16.58;;;;;;;;;;5088021;28;20020;-37
2023/06/20 05:51:18;;;;;;;23.30;17.60;;;;;;;;;;5087661;28;20040;-34
2023/06/20 05:53:43;;;;;;;26.38;17.15;;;;;;;;;;5087504;28;20457;-35
2023/06/20 05:56:09;;;;;;;28.88;17.52;;;;;;;;;;5090447;28;20537;-35
2023/06/20 05:58:36;;;;;;;29.67;17.98;;;;;;;;;;5071425;28;20032;-34
2023/06/20 06:01:01;;;;;;;25.15;17.35;;;;;;;;;;5087556;28;20024;-35
2023/06/20 06:03:27;;;;;;;23.50;16.58;;;;;;;;;;5070171;28;20468;-34
2023/06/20 06:05:52;;;;;;;20.60;16.95;;;;;;;;;;5074783;28;20740;-34
2023/06/20 06:08:20;;;;;;;26.48;17.98;;;;;;;;;;5086743;28;20020;-34
2023/06/20 06:10:48;;;;;;;13.45;10.73;;;;;;;;;;5087739;28;20074;-35
2023/06/20 06:13:13;;;;;;;26.73;16.02;;;;;;;;;;5088259;28;20024;-35
2023/06/20 06:15:38;;;;;;;25.58;17.65;;;;;;;;;;5087075;28;20036;-35
2023/06/20 06:18:04;;;;;;;21.95;17.60;;;;;;;;;;5086062;28;20055;-35
2023/06/20 06:20:29;;;;;;;27.77;19.00;;;;;;;;;;5082867;28;20431;-34
2023/06/20 06:22:55;;;;;;;23.08;18.10;;;;;;;;;;5086234;28;20028;-34
2023/06/20 06:25:20;;;;;;;22.77;17.85;;;;;;;;;;5085801;28;20461;-35
2023/06/20 06:27:46;;;;;;;20.90;16.55;;;;;;;;;;5087187;28;20032;-36
2023/06/20 06:30:14;;;;;;;25.85;17.83;;;;;;;;;;5086635;28;20017;-35
2023/06/20 06:32:39;;;;;;;30.05;18.55;;;;;;;;;;5071887;28;20037;-36
2023/06/20 06:35:05;;;;;;;24.95;17.75;;;;;;;;;;5081988;28;20432;-35
2023/06/20 06:37:34;;;;;;;24.80;16.45;;;;;;;;;;5086532;28;20020;-35
2023/06/20 06:40:02;;;;;;;28.08;18.58;;;;;;;;;;5082851;28;20055;-36
2023/06/20 06:42:28;;;;;;;25.20;16.95;;;;;;;;;;5086413;28;20027;-35
2023/06/20 06:44:55;;;;;;;22.73;17.88;;;;;;;;;;5084836;28;20024;-35
2023/06/20 06:47:21;;;;;;;28.73;18.33;;;;;;;;;;5083831;28;20078;-36
2023/06/20 06:49:46;;;;;;;25.67;16.67;;;;;;;;;;5070649;28;20024;-35
2023/06/20 06:52:12;;;;;;;24.10;17.17;;;;;;;;;;5085251;28;21445;-35
2023/06/20 06:54:39;;;;;;;23.63;16.30;;;;;;;;;;5088703;28;20080;-35
2023/06/20 06:57:05;;;;;;;22.30;17.25;;;;;;;;;;5082736;28;20051;-36
2023/06/20 06:59:30;;;;;;;24.63;17.55;;;;;;;;;;5068633;28;20604;-35
2023/06/20 07:01:56;;;;;;;20.63;16.73;;;;;;;;;;5087750;28;20506;-36
2023/06/20 07:04:21;;;;;;;24.67;17.45;;;;;;;;;;5070534;28;20118;-35
2023/06/20 07:06:46;;;;;;;23.50;17.88;;;;;;;;;;5067375;28;20024;-35
2023/06/20 07:09:11;;;;;;;22.48;17.05;;;;;;;;;;5083090;28;20028;-36
2023/06/20 07:11:37;;;;;;;26.23;18.02;;;;;;;;;;5085123;28;20032;-36
2023/06/20 07:14:02;;;;;;;24.67;17.52;;;;;;;;;;5086821;28;20016;-36
2023/06/20 07:16:31;;;;;;;20.48;16.25;;;;;;;;;;5084318;28;20039;-35
2023/06/20 07:18:57;;;;;;;23.98;16.98;;;;;;;;;;5068515;28;20107;-36
2023/06/20 07:21:22;;;;;;;21.45;17.17;;;;;;;;;;5088084;28;20452;-35
2023/06/20 07:23:47;;;;;;;24.98;17.58;;;;;;;;;;5065895;28;20012;-36
2023/06/20 07:26:13;;;;;;;23.48;17.50;;;;;;;;;;5082688;28;20039;-37
2023/06/20 07:28:39;;;;;;;22.08;17.42;;;;;;;;;;5066966;28;20024;-35
2023/06/20 07:31:05;;;;;;;21.95;16.45;;;;;;;;;;5087837;28;20059;-36
2023/06/20 07:33:32;;;;;;;26.08;17.85;;;;;;;;;;5084208;28;20088;-36
2023/06/20 07:35:59;;;;;;;21.77;17.05;;;;;;;;;;5069032;28;20123;-36
2023/06/20 07:38:25;;;;;;;25.88;18.02;;;;;;;;;;5081563;28;20031;-36
2023/06/20 07:40:53;;;;;;;28.90;17.88;;;;;;;;;;5082992;28;20020;-36
2023/06/20 07:43:20;;;;;;;29.52;17.55;;;;;;;;;;5083520;28;20159;-36
2023/06/20 07:45:48;;;;;;;25.63;18.33;;;;;;;;;;5068420;28;20025;-36
2023/06/20 07:48:14;;;;;;;21.67;18.05;;;;;;;;;;5086233;28;20028;-36
2023/06/20 07:50:39;;;;;;;19.83;16.85;;;;;;;;;;5081653;28;20032;-35
2023/06/20 07:53:04;;;;;;;21.08;17.52;;;;;;;;;;5069165;28;20441;-36
2023/06/20 07:55:30;;;;;;;25.20;17.83;;;;;;;;;;5083342;28;20024;-36
2023/06/20 07:57:56;;;;;;;23.08;17.27;;;;;;;;;;5084745;28;20012;-36
2023/06/20 08:00:23;;;;;;;28.63;20.25;;;;;;;;;;5082725;28;20406;-36
2023/06/20 08:02:48;;;;;;;23.83;18.65;;;;;;;;;;5087864;28;20039;-36
2023/06/20 08:05:23;;;;;;;27.15;17.98;;;;;;;;;;5068118;28;20058;-35
2023/06/20 08:07:49;;;;;;;22.30;17.35;;;;;;;;;;5066129;28;20024;-36
2023/06/20 08:10:17;;;;;;;27.35;17.58;;;;;;;;;;5084640;28;20364;-36
2023/06/20 08:12:43;;;;;;;14.18;10.73;;;;;;;;;;5085534;28;20038;-36
2023/06/20 08:15:08;;;;;;;22.65;18.38;;;;;;;;;;5085704;28;20085;-35
2023/06/20 08:17:36;;;;;;;20.27;17.13;;;;;;;;;;5063990;28;20029;-36
2023/06/20 08:20:06;;;;;;;20.98;16.52;;;;;;;;;;5067645;28;20081;-34
2023/06/20 08:22:31;;;;;;;23.13;17.08;;;;;;;;;;5080823;28;20125;-36
2023/06/20 08:24:56;;;;;;;23.50;17.45;;;;;;;;;;5083047;28;20462;-36
2023/06/20 08:27:22;;;;;;;20.90;16.90;;;;;;;;;;5070678;28;20039;-36
2023/06/20 08:29:47;;;;;;;22.33;17.20;;;;;;;;;;5086493;28;20004;-36
2023/06/20 08:32:12;;;;;;;19.20;16.05;;;;;;;;;;5069214;28;20032;-36
2023/06/20 08:34:40;;;;;;;12.40;10.43;;;;;;;;;;5072177;28;20043;-36
2023/06/20 08:37:08;;;;;;;22.50;17.80;;;;;;;;;;5069011;28;20038;-35
2023/06/20 08:39:33;;;;;;;23.98;18.35;;;;;;;;;;5068899;28;20501;-35
2023/06/20 08:41:58;;;;;;;27.67;17.67;;;;;;;;;;5067302;28;20060;-35
2023/06/20 08:44:24;;;;;;;20.95;17.30;;;;;;;;;;5068537;28;20016;-36
2023/06/20 08:46:56;;;;;;;24.33;17.90;;;;;;;;;;5105641;28;20047;-36
2023/06/20 08:49:22;;;;;;;22.67;17.88;;;;;;;;;;5087863;28;20032;-35
2023/06/20 08:51:48;;;;;;;18.48;16.35;;;;;;;;;;5088866;28;20024;-36
2023/06/20 08:54:16;;;;;;;21.67;18.42;;;;;;;;;;5075992;28;20152;-35
2023/06/20 08:56:43;;;;;;;23.50;16.85;;;;;;;;;;5092120;28;20035;-36
2023/06/20 08:59:08;;;;;;;26.63;18.02;;;;;;;;;;5087191;28;20040;-35
2023/06/20 09:01:35;;;;;;;31.08;21.45;;;;;;;;;;5089551;28;20016;-36
2023/06/20 09:04:02;;;;;;;28.77;21.27;;;;;;;;;;5074775;28;20024;-36
2023/06/20 09:06:33;;;;;;;23.67;18.23;;;;;;;;;;5087818;28;20390;-36
2023/06/20 09:08:58;;;;;;;36.55;25.10;;;;;;;;;;5087928;28;20518;-35
2023/06/20 09:11:24;;;;;;;23.75;20.23;;;;;;;;;;5088887;28;20031;-36
2023/06/20 09:13:49;;;;;;;23.33;18.58;;;;;;;;;;5086479;28;20084;-36
2023/06/20 09:16:18;;;;;;;24.33;17.47;;;;;;;;;;5087117;28;20478;-36
2023/06/20 09:18:49;;;;;;;22.65;17.13;;;;;;;;;;5063508;28;20278;-36
2023/06/20 09:21:17;;;;;;;23.25;17.33;;;;;;;;;;5091194;28;20020;-36
2023/06/20 09:23:43;;;;;;;23.73;18.08;;;;;;;;;;5088694;28;20047;-36
2023/06/20 09:26:15;;;;;;;21.42;17.33;;;;;;;;;;5081896;28;20020;-36
2023/06/20 09:28:40;;;;;;;26.02;18.17;;;;;;;;;;5080051;28;20502;-36
2023/06/20 09:31:06;;;;;;;21.42;17.05;;;;;;;;;;5082410;28;20051;-36
2023/06/20 09:33:31;;;;;;;22.00;17.83;;;;;;;;;;5087060;28;20020;-36
2023/06/20 09:36:15;;;;;;;22.67;17.75;;;;;;;;;;5092626;28;20032;-35
2023/06/20 09:38:44;;;;;;;27.08;18.45;;;;;;;;;;5093921;27;20032;-37
2023/06/20 09:41:19;;;;;;;22.25;16.05;;;;;;;;;;5082606;28;20024;-36
2023/06/20 09:43:44;;;;;;;22.35;16.90;;;;;;;;;;5086198;28;20032;-36
2023/06/20 09:46:10;;;;;;;21.90;16.95;;;;;;;;;;5084705;28;20032;-36
2023/06/20 09:48:36;;;;;;;19.70;16.63;;;;;;;;;;5084477;28;20048;-36
2023/06/20 09:51:04;;;;;;;19.70;16.00;;;;;;;;;;5082226;28;20049;-36
2023/06/20 09:53:35;;;;;;;22.73;16.73;;;;;;;;;;5084575;28;20044;-37
2023/06/20 09:56:01;;;;;;;21.13;16.98;;;;;;;;;;5085361;28;20111;-36
2023/06/20 09:58:29;;;;;;;21.48;16.92;;;;;;;;;;5084093;28;20029;-36
2023/06/20 10:00:55;;;;;;;24.70;18.02;;;;;;;;;;5071418;28;20402;-36
2023/06/20 10:03:22;;;;;;;23.90;16.98;;;;;;;;;;5088403;28;20115;-36
2023/06/20 10:05:47;;;;;;;27.58;21.27;;;;;;;;;;5083887;28;20399;-36
2023/06/20 10:08:17;;;;;;;27.05;21.88;;;;;;;;;;5085127;28;20095;-35
2023/06/20 10:10:42;;;;;;;21.67;17.02;;;;;;;;;;5084913;28;20035;-37
2023/06/20 10:13:08;;;;;;;22.23;17.27;;;;;;;;;;5085897;28;20020;-36
2023/06/20 10:15:33;;;;;;;20.42;17.25;;;;;;;;;;5081656;28;20277;-36
2023/06/20 10:17:58;;;;;;;26.23;18.35;;;;;;;;;;5088043;28;20390;-36
2023/06/20 10:20:27;;;;;;;26.40;19.77;;;;;;;;;;5089524;28;20024;-36
2023/06/20 10:22:59;;;;;;;23.35;17.38;;;;;;;;;;5087384;28;20035;-36
2023/06/20 10:25:25;;;;;;;20.45;16.52;;;;;;;;;;5088290;28;20020;-36
2023/06/20 10:27:56;;;;;;;18.33;15.70;;;;;;;;;;5087677;28;20524;-36
2023/06/20 10:30:40;;;;;;;21.53;15.37;;;;;;;;;;5088437;28;20016;-36
2023/06/20 10:33:07;;;;;;;21.20;16.02;;;;;;;;;;5086743;28;20282;-35
2023/06/20 10:35:33;;;;;;;22.17;18.38;;;;;;;;;;5098863;28;20021;-36
2023/06/20 10:38:16;;;;;;;25.63;16.33;;;;;;;;;;5084951;28;20466;-36
2023/06/20 10:40:42;;;;;;;18.80;15.25;;;;;;;;;;5062297;28;20036;-35
2023/06/20 10:43:15;;;;;;;20.80;16.98;;;;;;;;;;5070007;28;20036;-36
2023/06/20 10:45:59;;;;;;;19.27;16.83;;;;;;;;;;5085687;28;20016;-36
2023/06/20 10:48:26;;;;;;;22.92;19.02;;;;;;;;;;5067651;28;20521;-36
2023/06/20 10:50:57;;;;;;;24.75;20.65;;;;;;;;;;5085430;28;20111;-36
2023/06/20 10:53:23;;;;;;;25.67;21.10;;;;;;;;;;5103985;27;20016;-36
2023/06/20 10:55:48;;;;;;;24.85;21.02;;;;;;;;;;5084226;28;20034;-35
2023/06/20 10:58:15;;;;;;;24.52;21.63;;;;;;;;;;5067730;28;20570;-36
2023/06/20 11:00:43;;;;;;;23.50;20.38;;;;;;;;;;5084586;28;20482;-35
2023/06/20 11:03:09;;;;;;;24.70;20.98;;;;;;;;;;5086435;28;20020;-35
2023/06/20 11:05:35;;;;;;;25.20;21.30;;;;;;;;;;5084329;28;20038;-36
2023/06/20 11:08:01;;;;;;;32.13;22.13;;;;;;;;;;5082916;28;20383;-36
2023/06/20 11:10:30;;;;;;;30.55;21.77;;;;;;;;;;5085906;28;20020;-36
2023/06/20 11:12:59;;;;;;;24.15;21.23;;;;;;;;;;5084278;28;20026;-36
2023/06/20 11:15:28;;;;;;;29.55;23.17;;;;;;;;;;5085333;28;20095;-36
2023/06/20 11:17:55;;;;;;;27.00;19.25;;;;;;;;;;5084305;28;20039;-35
2023/06/20 11:20:21;;;;;;;23.90;19.30;;;;;;;;;;5082145;28;20031;-36
2023/06/20 11:22:47;;;;;;;28.05;19.70;;;;;;;;;;5098983;28;20112;-36
2023/06/20 11:25:28;;;;;;;23.90;19.10;;;;;;;;;;5080536;28;20115;-36
2023/06/20 11:28:03;;;;;;;25.55;19.17;;;;;;;;;;5097291;28;20063;-36
2023/06/20 11:30:29;;;;;;;30.65;21.80;;;;;;;;;;5075367;28;20019;-36
2023/06/20 11:32:57;;;;;;;27.80;22.30;;;;;;;;;;5085194;28;20076;-36
2023/06/20 11:35:37;;;;;;;15.68;13.55;;;;;;;;;;5085678;28;20119;-36
2023/06/20 11:38:02;;;;;;;26.90;21.83;;;;;;;;;;5093047;28;20031;-35
2023/06/20 11:40:28;;;;;;;30.60;23.30;;;;;;;;;;5066088;28;20035;-36
2023/06/20 11:42:54;;;;;;;31.10;24.73;;;;;;;;;;5083217;28;20035;-36
2023/06/20 11:45:23;;;;;;;31.27;24.30;;;;;;;;;;5080973;28;20019;-36
2023/06/20 11:47:49;;;;;;;33.10;24.83;;;;;;;;;;5080971;28;20020;-36
2023/06/20 11:50:21;;;;;;;30.08;24.95;;;;;;;;;;5079625;28;20030;-36
2023/06/20 11:52:57;;;;;;;32.00;25.50;;;;;;;;;;5087308;28;20028;-36
2023/06/20 11:55:42;;;;;;;31.58;25.45;;;;;;;;;;5084043;28;20061;-36
2023/06/20 11:58:08;;;;;;;33.65;25.58;;;;;;;;;;5080738;28;20486;-35
2023/06/20 12:00:34;;;;;;;35.55;25.92;;;;;;;;;;5076804;28;20038;-36
2023/06/20 12:02:59;;;;;;;33.30;26.52;;;;;;;;;;5069865;28;20024;-36
2023/06/20 12:05:31;;;;;;;32.47;24.50;;;;;;;;;;5084767;28;20111;-35
2023/06/20 12:07:59;;;;;;;34.55;24.98;;;;;;;;;;5084747;28;20024;-36
2023/06/20 12:10:28;;;;;;;31.77;26.70;;;;;;;;;;5087934;28;20028;-36
2023/06/20 12:12:54;;;;;;;32.15;25.38;;;;;;;;;;5086841;28;20051;-36
2023/06/20 12:15:19;;;;;;;30.25;25.20;;;;;;;;;;5065738;28;20071;-36
2023/06/20 12:17:47;;;;;;;28.92;24.23;;;;;;;;;;5087922;28;20027;-36
2023/06/20 12:20:13;;;;;;;34.53;27.60;;;;;;;;;;5083550;28;20401;-36
2023/06/20 12:22:38;;;;;;;40.80;26.05;;;;;;;;;;5084768;28;20534;-35
2023/06/20 12:25:04;;;;;;;35.03;27.27;;;;;;;;;;5084359;28;20062;-35
2023/06/20 12:27:33;;;;;;;33.92;28.63;;;;;;;;;;5069372;28;20055;-36
2023/06/20 12:29:58;;;;;;;34.85;29.67;;;;;;;;;;5089113;28;20038;-35
2023/06/20 12:32:25;;;;;;;39.10;30.08;;;;;;;;;;5069025;28;20444;-36
2023/06/20 12:34:51;;;;;;;40.63;28.17;;;;;;;;;;5083936;28;20020;-35
2023/06/20 12:37:16;;;;;;;36.33;28.90;;;;;;;;;;5080763;28;20451;-35
2023/06/20 12:39:41;;;;;;;37.20;28.38;;;;;;;;;;5079530;28;20097;-36
2023/06/20 12:42:07;;;;;;;38.93;31.17;;;;;;;;;;5084052;28;20048;-36
2023/06/20 12:44:32;;;;;;;37.10;29.05;;;;;;;;;;5086687;28;20258;-36
2023/06/20 12:46:58;;;;;;;36.35;27.42;;;;;;;;;;5084146;28;20165;-36
2023/06/20 12:49:23;;;;;;;37.72;29.17;;;;;;;;;;5086197;28;20132;-36
2023/06/20 12:51:48;;;;;;;42.08;29.10;;;;;;;;;;5068481;28;20044;-36
2023/06/20 12:54:14;;;;;;;39.65;29.40;;;;;;;;;;5086379;28;20028;-36
2023/06/20 12:56:41;;;;;;;38.25;29.83;;;;;;;;;;5068998;28;20032;-36
2023/06/20 12:59:11;;;;;;;38.92;29.63;;;;;;;;;;5085006;28;20497;-36
2023/06/20 13:01:38;;;;;;;38.37;28.77;;;;;;;;;;5086254;28;20051;-36
2023/06/20 13:04:03;;;;;;;41.70;30.33;;;;;;;;;;5069618;28;20390;-36
2023/06/20 13:06:28;;;;;;;39.33;31.52;;;;;;;;;;5084070;28;20041;-36
2023/06/20 13:08:54;;;;;;;50.88;31.67;;;;;;;;;;5082719;28;20560;-36
2023/06/20 13:11:20;;;;;;;42.20;32.08;;;;;;;;;;5068937;28;20043;-36
2023/06/20 13:13:48;;;;;;;42.55;32.00;;;;;;;;;;5083300;28;20032;-36
2023/06/20 13:16:13;;;;;;;38.63;29.85;;;;;;;;;;5080458;28;20032;-36
2023/06/20 13:18:39;;;;;;;38.22;28.80;;;;;;;;;;5080000;28;20024;-36
2023/06/20 13:21:07;;;;;;;38.67;30.05;;;;;;;;;;5084654;28;20031;-36
2023/06/20 13:23:32;;;;;;;39.35;31.65;;;;;;;;;;5085548;28;20020;-36
2023/06/20 13:26:00;;;;;;;41.30;31.15;;;;;;;;;;5078894;28;20024;-36
2023/06/20 13:28:27;;;;;;;37.65;29.63;;;;;;;;;;5082444;28;20115;-36
2023/06/20 13:30:56;;;;;;;44.22;35.53;;;;;;;;;;5070943;28;20020;-36
2023/06/20 13:33:23;;;;;;;41.78;33.10;;;;;;;;;;5087116;28;20112;-36
2023/06/20 13:35:51;;;;;;;42.97;30.90;;;;;;;;;;5088582;28;20020;-35
2023/06/20 13:38:19;;;;;;;38.85;31.67;;;;;;;;;;5087241;28;20024;-36
2023/06/20 13:40:45;;;;;;;39.75;30.60;;;;;;;;;;5085846;28;20012;-36
2023/06/20 13:43:13;;;;;;;38.03;30.75;;;;;;;;;;5071665;28;20039;-36
2023/06/20 13:45:38;;;;;;;37.55;30.15;;;;;;;;;;5084908;28;20036;-36
2023/06/20 13:48:06;;;;;;;37.47;29.90;;;;;;;;;;5072917;28;20032;-36
2023/06/20 13:50:32;;;;;;;38.17;28.25;;;;;;;;;;5086861;28;20030;-36
2023/06/20 13:52:58;;;;;;;38.40;29.75;;;;;;;;;;5089606;28;20765;-36
2023/06/20 13:55:23;;;;;;;34.47;28.45;;;;;;;;;;5065735;28;20028;-35
2023/06/20 13:57:48;;;;;;;36.67;28.42;;;;;;;;;;5085093;28;20028;-36
2023/06/20 14:00:14;;;;;;;39.63;30.40;;;;;;;;;;5085518;28;20048;-36
2023/06/20 14:02:42;;;;;;;39.22;30.45;;;;;;;;;;5086074;28;20050;-35
2023/06/20 14:05:11;;;;;;;38.00;30.35;;;;;;;;;;5088941;28;20035;-36
2023/06/20 14:07:37;;;;;;;49.20;37.58;;;;;;;;;;5085785;28;20012;-36
2023/06/20 14:10:03;;;;;;;44.50;33.88;;;;;;;;;;5085541;28;20020;-36
2023/06/20 14:12:31;;;;;;;37.92;30.42;;;;;;;;;;5065933;28;20024;-35
2023/06/20 14:14:58;;;;;;;42.67;30.80;;;;;;;;;;5084964;28;20691;-36
2023/06/20 14:17:23;;;;;;;31.02;23.77;;;;;;;;;;5067110;28;20035;-36
2023/06/20 14:19:49;;;;;;;31.63;23.35;;;;;;;;;;5072104;28;20028;-36
2023/06/20 14:22:16;;;;;;;27.42;20.95;;;;;;;;;;5081826;28;20458;-36
2023/06/20 14:24:42;;;;;;;27.27;20.58;;;;;;;;;;5085356;28;20024;-36
2023/06/20 14:27:07;;;;;;;27.50;21.02;;;;;;;;;;5071618;28;20039;-36
2023/06/20 14:29:33;;;;;;;30.50;23.02;;;;;;;;;;5085756;28;20043;-36
2023/06/20 14:31:58;;;;;;;29.55;23.33;;;;;;;;;;5086989;28;20966;-36